Terminal Aerodrome Forecast
Issued by NWS

Home | Current Version | Previous Version | Text Only | Print | Product List | Glossary On
Versions: 1 2 3 4 5 6 7 8 9 10 11 12 13 14 15 16 17 18 19 20 21 22 23 24 25 26 27 28 29 30 31 32 33 34
000
FTUS46 KSGX 210500
TAFSAN
TAF
KSAN 210520Z 2106/2212 VRB03KT P6SM OVC017
     FM211730 VRB04KT P6SM SCT019
     FM212000 29008KT P6SM SKC
     FM220100 VRB04KT P6SM FEW014
     FM220500 VRB03KT P6SM BKN013=

USA.gov is the U.S. government's official web portal to all federal, state and local government web resources and services.